Time;durP1;ratioP1;P1;durP2;ratioP2;P2;SDS_P1;SDS_P2;PMS_P1;PMS_P2;Temp;Humidity;BMP_temperature;BMP_pressure;BME280_temperature;BME280_humidity;BME280_pressure;Samples;Min_cycle;Max_cycle;Signal;HPM_P1;HPM_P2
2022/10/06 00:01:29;0.00;0.00;0.62;0.00;0.00;0.62;1.50;0.80;;;29.10;27.80;;;;;;2265620;61;20341;-74
2022/10/06 00:04:14;0.00;0.00;0.62;0.00;0.00;0.62;1.40;0.90;;;29.10;27.80;;;;;;2265858;61;20381;-74
2022/10/06 00:06:59;0.00;0.00;0.62;0.00;0.00;0.62;1.83;0.80;;;29.10;27.90;;;;;;2265578;61;20357;-74
2022/10/06 00:09:43;0.00;0.00;0.62;0.00;0.00;0.62;1.47;1.00;;;29.10;27.90;;;;;;2265626;61;20431;-71
2022/10/06 00:12:28;0.00;0.00;0.62;0.00;0.00;0.62;1.60;1.10;;;29.10;27.90;;;;;;2266408;61;20403;-73
2022/10/06 00:15:18;0.00;0.00;0.62;0.00;0.00;0.62;1.60;0.90;;;29.10;27.90;;;;;;2265612;61;20659;-73
2022/10/06 00:18:03;0.00;0.00;0.62;0.00;0.00;0.62;1.50;1.07;;;29.10;27.90;;;;;;2265740;61;20360;-73
2022/10/06 00:20:54;0.00;0.00;0.62;0.00;0.00;0.62;1.53;1.20;;;29.10;27.90;;;;;;2265953;61;20380;-73
2022/10/06 00:23:39;0.00;0.00;0.62;0.00;0.00;0.62;1.70;1.27;;;29.00;28.40;;;;;;2265594;61;20364;-73
2022/10/06 00:26:24;0.00;0.00;0.62;0.00;0.00;0.62;1.47;1.00;;;29.00;27.80;;;;;;2265812;61;20361;-72
2022/10/06 00:29:09;0.00;0.00;0.62;0.00;0.00;0.62;1.70;1.00;;;29.00;27.70;;;;;;2265489;61;20426;-73
2022/10/06 00:31:56;0.00;0.00;0.62;0.00;0.00;0.62;1.50;1.00;;;28.90;27.60;;;;;;2265776;61;20388;-72
2022/10/06 00:34:40;0.00;0.00;0.62;0.00;0.00;0.62;1.50;0.80;;;28.90;27.70;;;;;;2266323;61;20357;-72
2022/10/06 00:37:25;0.00;0.00;0.62;0.00;0.00;0.62;1.40;0.93;;;28.80;27.70;;;;;;2265355;61;20411;-72
2022/10/06 00:40:10;0.00;0.00;0.62;0.00;0.00;0.62;1.93;0.90;;;28.80;27.80;;;;;;2265794;61;20737;-72
2022/10/06 00:43:00;0.00;0.00;0.62;0.00;0.00;0.62;1.40;0.70;;;28.70;27.80;;;;;;2265694;61;20353;-71
2022/10/06 00:45:47;0.00;0.00;0.62;0.00;0.00;0.62;1.30;0.77;;;28.70;27.90;;;;;;2264885;61;20385;-71
2022/10/06 00:48:34;0.00;0.00;0.62;0.00;0.00;0.62;1.60;1.03;;;28.60;27.90;;;;;;2265419;61;20360;-71
2022/10/06 00:51:21;0.00;0.00;0.62;0.00;0.00;0.62;2.33;0.80;;;28.60;28.00;;;;;;2265323;61;20385;-71
2022/10/06 00:54:06;0.00;0.00;0.62;0.00;0.00;0.62;1.70;0.73;;;28.60;28.50;;;;;;2265723;61;20400;-71
2022/10/06 00:56:51;0.00;0.00;0.62;0.00;0.00;0.62;1.50;0.80;;;28.50;28.00;;;;;;2266197;61;20400;-72
2022/10/06 00:59:38;0.00;0.00;0.62;0.00;0.00;0.62;1.77;0.73;;;28.50;28.10;;;;;;2264672;61;20376;-72
2022/10/06 01:02:32;0.00;0.00;0.62;0.00;0.00;0.62;1.70;0.90;;;28.50;28.20;;;;;;2265439;61;20353;-71
2022/10/06 01:05:32;0.00;0.00;0.62;0.00;0.00;0.62;1.50;0.80;;;28.40;28.10;;;;;;2265713;61;20407;-71
2022/10/06 01:08:20;0.00;0.00;0.62;0.00;0.00;0.62;1.60;0.80;;;28.40;28.20;;;;;;2265247;61;20361;-71
2022/10/06 01:11:10;0.00;0.00;0.62;0.00;0.00;0.62;1.37;0.90;;;28.40;28.20;;;;;;2265374;61;20389;-71
2022/10/06 01:13:55;0.00;0.00;0.62;0.00;0.00;0.62;1.60;0.80;;;28.30;28.20;;;;;;2265272;61;20590;-72
2022/10/06 01:16:45;0.00;0.00;0.62;0.00;0.00;0.62;1.70;0.73;;;28.30;28.30;;;;;;2265086;61;20747;-72
2022/10/06 01:19:43;0.00;0.00;0.62;0.00;0.00;0.62;1.50;0.70;;;28.30;28.30;;;;;;2265868;61;20459;-72
2022/10/06 01:22:34;0.00;0.00;0.62;0.00;0.00;0.62;3.93;0.60;;;28.30;28.30;;;;;;2264872;61;20613;-72
2022/10/06 01:25:20;0.00;0.00;0.62;0.00;0.00;0.62;1.70;0.70;;;28.30;28.40;;;;;;2273698;61;20360;-72
2022/10/06 01:28:08;0.00;0.00;0.62;0.00;0.00;0.62;1.30;0.70;;;28.20;28.30;;;;;;2269652;61;20364;-72
2022/10/06 01:30:59;0.00;0.00;0.62;0.00;0.00;0.62;1.30;0.67;;;28.20;28.30;;;;;;2269321;61;20775;-72
2022/10/06 01:33:49;0.00;0.00;0.62;0.00;0.00;0.62;1.67;0.90;;;28.10;28.30;;;;;;2269706;61;20360;-72
2022/10/06 01:36:34;0.00;0.00;0.62;0.00;0.00;0.62;1.97;0.87;;;28.10;28.30;;;;;;2269238;61;20400;-72
2022/10/06 01:39:20;0.00;0.00;0.62;0.00;0.00;0.62;1.50;0.70;;;28.10;28.30;;;;;;2269555;61;20380;-72
2022/10/06 01:42:05;0.00;0.00;0.62;0.00;0.00;0.62;1.30;0.70;;;28.10;28.30;;;;;;2269350;61;20356;-72
2022/10/06 01:44:50;0.00;0.00;0.62;0.00;0.00;0.62;5.47;0.70;;;28.00;28.20;;;;;;2269354;61;20360;-72
2022/10/06 01:47:35;0.00;0.00;0.62;0.00;0.00;0.62;1.53;0.70;;;28.00;28.30;;;;;;2269843;61;20755;-72
2022/10/06 01:50:21;0.00;0.00;0.62;0.00;0.00;0.62;1.40;0.70;;;28.00;28.30;;;;;;2268569;61;20760;-72
2022/10/06 01:53:06;0.00;0.00;0.62;0.00;0.00;0.62;1.30;0.80;;;27.90;28.20;;;;;;2269689;61;20448;-72
2022/10/06 01:55:58;0.00;0.00;0.62;0.00;0.00;0.62;1.30;0.60;;;27.90;28.30;;;;;;2266786;61;20363;-72
2022/10/06 01:58:43;0.00;0.00;0.62;0.00;0.00;0.62;2.67;0.70;;;27.90;28.30;;;;;;2268702;61;20365;-72
2022/10/06 02:01:28;0.00;0.00;0.62;0.00;0.00;0.62;1.60;0.80;;;27.80;28.30;;;;;;2269233;61;20360;-72
2022/10/06 02:04:13;0.00;0.00;0.62;0.00;0.00;0.62;1.37;0.80;;;27.80;28.30;;;;;;2269412;61;20490;-72
2022/10/06 02:06:58;0.00;0.00;0.62;0.00;0.00;0.62;2.53;0.60;;;27.80;28.30;;;;;;2268896;61;20364;-72
2022/10/06 02:09:45;0.00;0.00;0.62;0.00;0.00;0.62;1.30;0.70;;;27.70;28.30;;;;;;2269081;61;20618;-72
2022/10/06 02:12:32;0.00;0.00;0.62;0.00;0.00;0.62;1.80;0.83;;;27.70;28.30;;;;;;2268909;61;20720;-71
2022/10/06 02:15:19;0.00;0.00;0.62;0.00;0.00;0.62;1.60;0.70;;;27.70;28.40;;;;;;2269232;61;20356;-72
2022/10/06 02:18:04;0.00;0.00;0.62;0.00;0.00;0.62;1.50;0.60;;;27.70;28.40;;;;;;2269631;61;20727;-72
2022/10/06 02:20:49;0.00;0.00;0.62;0.00;0.00;0.62;1.30;0.70;;;27.70;28.40;;;;;;2268870;61;20621;-72
2022/10/06 02:23:40;0.00;0.00;0.62;0.00;0.00;0.62;1.80;0.83;;;27.70;28.40;;;;;;2269646;61;20789;-72
2022/10/06 02:26:26;0.00;0.00;0.62;0.00;0.00;0.62;1.30;0.70;;;27.60;28.40;;;;;;2267258;61;20812;-72
2022/10/06 02:29:12;0.00;0.00;0.62;0.00;0.00;0.62;2.63;0.80;;;27.60;28.40;;;;;;2260964;61;20393;-71
2022/10/06 02:31:59;0.00;0.00;0.62;0.00;0.00;0.62;1.93;0.80;;;27.60;28.30;;;;;;2258205;61;20382;-72
2022/10/06 02:34:43;0.00;0.00;0.62;0.00;0.00;0.62;1.80;0.80;;;27.60;28.30;;;;;;2260715;61;20408;-73
2022/10/06 02:37:29;0.00;0.00;0.62;0.00;0.00;0.62;1.80;0.70;;;27.50;28.30;;;;;;2261102;61;20357;-72
2022/10/06 02:40:15;0.00;0.00;0.62;0.00;0.00;0.62;1.53;0.90;;;27.50;28.20;;;;;;2263968;61;20645;-73
2022/10/06 02:42:59;0.00;0.00;0.62;0.00;0.00;0.62;2.13;0.93;;;27.50;28.20;;;;;;2260712;61;20421;-73
2022/10/06 02:45:54;0.00;0.00;0.62;0.00;0.00;0.62;1.70;0.70;;;27.40;28.20;;;;;;2261261;61;20642;-72
2022/10/06 02:48:40;0.00;0.00;0.62;0.00;0.00;0.62;1.43;0.73;;;27.40;28.20;;;;;;2261220;61;20409;-72
2022/10/06 02:51:28;0.00;0.00;0.62;0.00;0.00;0.62;2.30;1.00;;;27.40;28.30;;;;;;2263384;61;20390;-73
2022/10/06 02:54:14;0.00;0.00;0.62;0.00;0.00;0.62;1.87;0.80;;;27.30;28.20;;;;;;2260969;61;20357;-72
2022/10/06 02:56:58;0.00;0.00;0.62;0.00;0.00;0.62;2.33;0.80;;;27.30;28.30;;;;;;2261015;61;20370;-72
2022/10/06 02:59:44;0.00;0.00;0.62;0.00;0.00;0.62;2.13;0.90;;;27.30;28.30;;;;;;2263581;61;20457;-73
2022/10/06 03:02:30;0.00;0.00;0.62;0.00;0.00;0.62;1.50;0.80;;;27.20;28.30;;;;;;2261650;61;20373;-73
2022/10/06 03:05:15;0.00;0.00;0.62;0.00;0.00;0.62;2.30;0.90;;;27.20;28.40;;;;;;2260863;61;20361;-74
2022/10/06 03:08:00;0.00;0.00;0.62;0.00;0.00;0.62;2.33;1.10;;;27.20;28.40;;;;;;2260884;61;20384;-72
2022/10/06 03:10:44;0.00;0.00;0.62;0.00;0.00;0.62;2.37;0.80;;;27.20;28.50;;;;;;2261283;61;20425;-73
2022/10/06 03:13:30;0.00;0.00;0.62;0.00;0.00;0.62;1.30;0.90;;;27.10;28.40;;;;;;2260534;61;20635;-73
2022/10/06 03:16:18;0.00;0.00;0.62;0.00;0.00;0.62;2.10;0.80;;;27.10;28.50;;;;;;2261254;61;20373;-73
2022/10/06 03:19:06;0.00;0.00;0.62;0.00;0.00;0.62;5.50;1.23;;;27.10;28.50;;;;;;2260604;61;20357;-73
2022/10/06 03:21:50;0.00;0.00;0.62;0.00;0.00;0.62;3.90;1.30;;;27.00;28.40;;;;;;2260823;61;20358;-72
2022/10/06 03:24:45;0.00;0.00;0.62;0.00;0.00;0.62;3.93;1.00;;;27.00;28.50;;;;;;2261688;61;20392;-73
2022/10/06 03:27:30;0.00;0.00;0.62;0.00;0.00;0.62;1.93;1.00;;;27.00;28.50;;;;;;2262963;61;20785;-73
2022/10/06 03:30:19;0.00;0.00;0.62;0.00;0.00;0.62;3.83;1.33;;;27.00;28.40;;;;;;2264640;61;20377;-73
2022/10/06 03:33:04;0.00;0.00;0.62;0.00;0.00;0.62;2.03;1.20;;;27.00;28.50;;;;;;2265908;61;20352;-73
2022/10/06 03:36:00;0.00;0.00;0.62;0.00;0.00;0.62;2.27;0.90;;;26.90;28.50;;;;;;2265229;61;20391;-72
2022/10/06 03:38:44;0.00;0.00;0.62;0.00;0.00;0.62;3.03;1.10;;;26.90;28.50;;;;;;2265540;61;20365;-72
2022/10/06 03:41:31;0.00;0.00;0.62;0.00;0.00;0.62;3.60;1.00;;;26.90;28.50;;;;;;2265557;61;20420;-72
2022/10/06 03:44:16;0.00;0.00;0.62;0.00;0.00;0.62;2.00;1.00;;;26.90;28.50;;;;;;2265442;61;20392;-73
2022/10/06 03:47:02;0.00;0.00;0.62;0.00;0.00;0.62;2.40;0.90;;;26.90;28.60;;;;;;2265935;61;20400;-72
2022/10/06 03:49:47;0.00;0.00;0.62;0.00;0.00;0.62;3.20;1.30;;;26.80;28.50;;;;;;2265490;61;20378;-72
2022/10/06 03:52:35;0.00;0.00;0.62;0.00;0.00;0.62;2.03;0.90;;;26.80;28.50;;;;;;2265618;61;20598;-72
2022/10/06 03:55:20;0.00;0.00;0.62;0.00;0.00;0.62;2.37;1.20;;;26.80;28.60;;;;;;2265791;61;20356;-72
2022/10/06 03:58:05;0.00;0.00;0.62;0.00;0.00;0.62;2.83;1.37;;;26.80;28.60;;;;;;2264969;61;20353;-72
2022/10/06 04:01:02;0.00;0.00;0.62;0.00;0.00;0.62;3.13;1.20;;;26.80;28.70;;;;;;2266034;61;20368;-72
2022/10/06 04:03:47;0.00;0.00;0.62;0.00;0.00;0.62;2.20;0.97;;;26.80;28.70;;;;;;2265285;61;20407;-72
2022/10/06 04:06:35;0.00;0.00;0.62;0.00;0.00;0.62;2.47;1.07;;;26.80;28.70;;;;;;2265293;61;20353;-72
2022/10/06 04:09:21;0.00;0.00;0.62;0.00;0.00;0.62;3.07;1.10;;;26.80;28.70;;;;;;2265712;61;20401;-72
2022/10/06 04:12:07;0.00;0.00;0.62;0.00;0.00;0.62;1.97;1.00;;;26.80;28.70;;;;;;2264715;61;20423;-72
2022/10/06 04:14:54;0.00;0.00;0.62;0.00;0.00;0.62;2.10;1.20;;;26.80;28.70;;;;;;2265623;61;20587;-72
2022/10/06 04:17:39;0.00;0.00;0.62;0.00;0.00;0.62;2.90;1.20;;;26.70;29.20;;;;;;2265592;61;20717;-72
2022/10/06 04:20:24;0.00;0.00;0.62;0.00;0.00;0.62;2.40;1.10;;;26.80;28.70;;;;;;2265574;61;20443;-73
2022/10/06 04:23:09;0.00;0.00;0.62;0.00;0.00;0.62;2.40;1.10;;;26.80;28.80;;;;;;2265936;61;20353;-73
2022/10/06 04:25:59;0.00;0.00;0.62;0.00;0.00;0.62;4.37;1.60;;;26.80;28.70;;;;;;2265320;61;20361;-73
2022/10/06 04:28:45;0.00;0.00;0.62;0.00;0.00;0.62;2.47;1.10;;;26.70;28.70;;;;;;2265729;61;20388;-73
2022/10/06 04:31:37;0.00;0.00;0.62;0.00;0.00;0.62;3.20;1.07;;;26.70;28.70;;;;;;2266081;61;20412;-73
2022/10/06 04:34:25;0.00;0.00;0.62;0.00;0.00;0.62;3.40;1.20;;;26.70;29.20;;;;;;2264821;61;20377;-73
2022/10/06 04:37:10;0.00;0.00;0.62;0.00;0.00;0.62;2.47;1.17;;;26.70;28.60;;;;;;2265905;61;20411;-73
2022/10/06 04:39:57;0.00;0.00;0.62;0.00;0.00;0.62;2.73;1.20;;;26.70;28.60;;;;;;2265287;61;20373;-73
2022/10/06 04:42:44;0.00;0.00;0.62;0.00;0.00;0.62;3.30;1.30;;;26.70;29.10;;;;;;2264796;61;20571;-72
2022/10/06 04:45:32;0.00;0.00;0.62;0.00;0.00;0.62;3.30;1.40;;;26.70;28.60;;;;;;2265359;61;20361;-73
2022/10/06 04:48:19;0.00;0.00;0.62;0.00;0.00;0.62;3.33;1.80;;;26.60;28.60;;;;;;2264724;61;20713;-72
2022/10/06 04:51:06;0.00;0.00;0.62;0.00;0.00;0.62;2.97;1.20;;;26.60;28.50;;;;;;2265137;61;20389;-72
2022/10/06 04:53:52;0.00;0.00;0.62;0.00;0.00;0.62;4.10;1.33;;;26.60;28.50;;;;;;2265708;61;20568;-71
2022/10/06 04:56:37;0.00;0.00;0.62;0.00;0.00;0.62;3.80;1.77;;;26.50;28.40;;;;;;2264695;61;20387;-71
2022/10/06 05:00:21;0.00;0.00;0.62;0.00;0.00;0.62;2.97;1.50;;;26.50;28.40;;;;;;2265146;61;20419;-72
2022/10/06 05:02:31;0.00;0.00;0.62;0.00;0.00;0.62;2.60;1.47;;;26.50;28.50;;;;;;2265141;61;20587;-72
2022/10/06 05:05:16;0.00;0.00;0.62;0.00;0.00;0.62;1.97;1.17;;;26.50;28.50;;;;;;2265343;61;20438;-72
2022/10/06 05:08:01;0.00;0.00;0.62;0.00;0.00;0.62;3.43;1.27;;;26.50;28.60;;;;;;2265196;61;20385;-72
2022/10/06 05:10:46;0.00;0.00;0.62;0.00;0.00;0.62;2.83;1.77;;;26.40;28.50;;;;;;2264934;61;20424;-71
2022/10/06 05:13:33;0.00;0.00;0.62;0.00;0.00;0.62;2.70;1.30;;;26.40;28.40;;;;;;2265162;61;20717;-73
2022/10/06 05:16:24;0.00;0.00;0.62;0.00;0.00;0.62;5.30;1.83;;;26.40;28.30;;;;;;2265432;61;20361;-70
2022/10/06 05:19:08;0.00;0.00;0.62;0.00;0.00;0.62;5.00;1.30;;;26.30;28.30;;;;;;2261276;61;20349;-71
2022/10/06 05:21:58;0.00;0.00;0.62;0.00;0.00;0.62;3.83;1.33;;;26.30;28.40;;;;;;2265320;61;20410;-70
2022/10/06 05:24:52;0.00;0.00;0.62;0.00;0.00;0.62;3.97;1.83;;;26.30;28.50;;;;;;2268882;61;20396;-67
2022/10/06 05:27:37;0.00;0.00;0.62;0.00;0.00;0.62;3.50;1.30;;;26.20;28.50;;;;;;2269687;61;20363;-71
2022/10/06 05:30:23;0.00;0.00;0.62;0.00;0.00;0.62;3.70;1.40;;;26.20;28.50;;;;;;2269930;61;20424;-70
2022/10/06 05:33:11;0.00;0.00;0.62;0.00;0.00;0.62;2.37;1.37;;;26.20;28.60;;;;;;2269088;61;20379;-71
2022/10/06 05:35:58;0.00;0.00;0.62;0.00;0.00;0.62;4.13;1.53;;;26.20;28.60;;;;;;2269196;61;20480;-70
2022/10/06 05:38:47;0.00;0.00;0.62;0.00;0.00;0.62;2.90;1.57;;;26.20;28.70;;;;;;2269261;61;20364;-68
2022/10/06 05:41:33;0.00;0.00;0.62;0.00;0.00;0.62;5.03;1.60;;;26.20;28.70;;;;;;2268920;61;20356;-67
2022/10/06 05:44:22;0.00;0.00;0.62;0.00;0.00;0.62;3.00;1.40;;;26.20;28.70;;;;;;2269222;61;20353;-67
2022/10/06 05:47:07;0.00;0.00;0.62;0.00;0.00;0.62;6.20;1.90;;;26.20;28.70;;;;;;2268567;61;20375;-67
2022/10/06 05:49:54;0.00;0.00;0.62;0.00;0.00;0.62;3.60;1.13;;;26.20;28.70;;;;;;2269298;61;20602;-71
2022/10/06 05:52:39;0.00;0.00;0.62;0.00;0.00;0.62;3.53;1.40;;;26.20;28.80;;;;;;2266641;61;20380;-67
2022/10/06 05:55:25;0.00;0.00;0.62;0.00;0.00;0.62;2.60;1.10;;;26.20;28.80;;;;;;2268786;61;20363;-66
2022/10/06 05:58:12;0.00;0.00;0.62;0.00;0.00;0.62;3.67;1.67;;;26.20;28.80;;;;;;2268953;61;20407;-69
2022/10/06 06:01:07;0.00;0.00;0.62;0.00;0.00;0.62;2.87;1.53;;;26.20;28.80;;;;;;2269486;61;20490;-66
2022/10/06 06:03:53;0.00;0.00;0.62;0.00;0.00;0.62;3.90;1.20;;;26.20;28.80;;;;;;2268854;61;20756;-69
2022/10/06 06:06:43;0.00;0.00;0.62;0.00;0.00;0.62;3.67;1.50;;;26.20;28.80;;;;;;2268946;61;20398;-68
2022/10/06 06:09:31;0.00;0.00;0.62;0.00;0.00;0.62;5.10;1.60;;;26.20;28.80;;;;;;2268720;61;20376;-68
2022/10/06 06:12:21;0.00;0.00;0.62;0.00;0.00;0.62;3.83;1.30;;;26.10;28.70;;;;;;2268891;61;20472;-71
2022/10/06 06:18:18;0.00;0.00;0.62;0.00;0.00;0.62;6.20;1.70;;;26.10;28.60;;;;;;2268318;61;20353;-69
2022/10/06 06:21:06;0.00;0.00;0.62;0.00;0.00;0.62;3.93;1.40;;;26.10;28.60;;;;;;2269021;61;20445;-67
2022/10/06 06:23:52;0.00;0.00;0.62;0.00;0.00;0.62;4.03;1.87;;;26.10;28.60;;;;;;2269176;61;20399;-70
2022/10/06 06:26:38;0.00;0.00;0.62;0.00;0.00;0.62;3.60;1.27;;;26.10;28.60;;;;;;2269440;61;20384;-67
2022/10/06 06:29:23;0.00;0.00;0.62;0.00;0.00;0.62;4.50;1.40;;;26.10;28.60;;;;;;2269170;61;20376;-68
2022/10/06 06:32:08;0.00;0.00;0.62;0.00;0.00;0.62;6.03;1.83;;;26.10;28.50;;;;;;2268626;61;20404;-68
2022/10/06 06:34:53;0.00;0.00;0.62;0.00;0.00;0.62;3.93;1.10;;;26.10;28.60;;;;;;2268871;61;20344;-68
2022/10/06 06:37:38;0.00;0.00;0.62;0.00;0.00;0.62;3.20;1.80;;;26.10;28.60;;;;;;2269341;61;20390;-70
2022/10/06 06:40:25;0.00;0.00;0.62;0.00;0.00;0.62;4.70;1.90;;;26.10;28.60;;;;;;2268371;61;20422;-68
2022/10/06 06:43:11;0.00;0.00;0.62;0.00;0.00;0.62;3.53;1.37;;;26.00;28.40;;;;;;2269500;61;20375;-67
2022/10/06 06:46:17;0.00;0.00;0.62;0.00;0.00;0.62;2.63;1.30;;;26.10;28.50;;;;;;2269046;61;20360;-66
2022/10/06 06:49:11;0.00;0.00;0.62;0.00;0.00;0.62;4.03;1.57;;;26.00;28.50;;;;;;2268900;61;20411;-67
2022/10/06 06:52:02;0.00;0.00;0.62;0.00;0.00;0.62;3.77;1.77;;;26.00;28.40;;;;;;2269268;61;20368;-68
2022/10/06 06:54:48;0.00;0.00;0.62;0.00;0.00;0.62;4.23;1.53;;;26.00;28.40;;;;;;2268669;61;20372;-70
2022/10/06 06:57:45;0.00;0.00;0.62;0.00;0.00;0.62;3.83;1.80;;;26.00;28.30;;;;;;2269340;61;20411;-71
2022/10/06 07:00:31;0.00;0.00;0.62;0.00;0.00;0.62;4.10;1.30;;;26.00;28.30;;;;;;2268951;61;20601;-67
2022/10/06 07:03:19;0.00;0.00;0.62;0.00;0.00;0.62;4.30;1.43;;;26.00;28.30;;;;;;2268647;61;20420;-68
2022/10/06 07:06:08;0.00;0.00;0.62;0.00;0.00;0.62;3.27;1.40;;;26.00;28.30;;;;;;2269155;61;20640;-67
2022/10/06 07:08:54;0.00;0.00;0.62;0.00;0.00;0.62;3.50;1.53;;;26.00;28.30;;;;;;2269000;61;20716;-67
2022/10/06 07:11:39;0.00;0.00;0.62;0.00;0.00;0.62;2.73;1.63;;;26.00;28.20;;;;;;2269869;61;20430;-68
2022/10/06 07:14:35;0.00;0.00;0.62;0.00;0.00;0.62;5.10;1.43;;;26.00;28.30;;;;;;2268312;61;20384;-71
2022/10/06 07:26:37;0.00;0.00;0.62;0.00;0.00;0.62;3.17;1.30;;;25.90;28.10;;;;;;2269396;61;20441;-68
2022/10/06 07:29:22;0.00;0.00;0.62;0.00;0.00;0.62;3.73;1.40;;;25.90;28.10;;;;;;2269417;61;20430;-71
2022/10/06 07:32:11;0.00;0.00;0.62;0.00;0.00;0.62;4.90;1.57;;;25.90;28.20;;;;;;2268479;61;20468;-68
2022/10/06 07:34:57;0.00;0.00;0.62;0.00;0.00;0.62;4.07;1.50;;;25.80;28.20;;;;;;2268845;61;20527;-69
2022/10/06 07:37:42;0.00;0.00;0.62;0.00;0.00;0.62;4.63;1.87;;;25.80;28.20;;;;;;2269104;61;20485;-67
2022/10/06 07:40:27;0.00;0.00;0.62;0.00;0.00;0.62;2.37;1.30;;;25.80;28.20;;;;;;2269781;61;20391;-66
2022/10/06 07:43:13;0.00;0.00;0.62;0.00;0.00;0.62;3.00;1.30;;;25.80;28.20;;;;;;2269308;61;20380;-64
2022/10/06 07:46:08;0.00;0.00;0.62;0.00;0.00;0.62;7.13;1.87;;;25.80;28.20;;;;;;2269095;61;20379;-65
2022/10/06 07:48:59;0.00;0.00;0.62;0.00;0.00;0.62;2.77;1.70;;;25.80;28.20;;;;;;2269252;61;20364;-67
2022/10/06 07:51:44;0.00;0.00;0.62;0.00;0.00;0.62;6.23;1.73;;;25.80;28.70;;;;;;2267049;61;20391;-70
2022/10/06 07:54:29;0.00;0.00;0.62;0.00;0.00;0.62;4.30;1.60;;;25.80;28.20;;;;;;2268836;61;20395;-70
2022/10/06 07:57:33;0.00;0.00;0.62;0.00;0.00;0.62;3.77;1.47;;;25.80;28.20;;;;;;2268852;61;20564;-67
2022/10/06 08:00:21;0.00;0.00;0.62;0.00;0.00;0.62;2.43;1.17;;;25.80;28.20;;;;;;2269422;61;20450;-67
2022/10/06 08:03:09;0.00;0.00;0.62;0.00;0.00;0.62;3.93;1.40;;;25.90;28.30;;;;;;2269996;61;20458;-67
2022/10/06 08:06:00;0.00;0.00;0.62;0.00;0.00;0.62;2.53;1.20;;;25.90;28.40;;;;;;2270225;61;20692;-69
2022/10/06 08:08:48;0.00;0.00;0.62;0.00;0.00;0.62;3.20;1.23;;;25.90;28.40;;;;;;2269421;61;20472;-69
2022/10/06 08:11:33;0.00;0.00;0.62;0.00;0.00;0.62;2.10;1.10;;;26.00;28.50;;;;;;2269980;61;20426;-67
2022/10/06 08:14:18;0.00;0.00;0.62;0.00;0.00;0.62;2.27;1.20;;;26.00;28.50;;;;;;2270110;61;20421;-69
2022/10/06 08:17:02;0.00;0.00;0.62;0.00;0.00;0.62;1.83;0.90;;;26.10;28.60;;;;;;2269713;61;20356;-71
2022/10/06 08:19:47;0.00;0.00;0.62;0.00;0.00;0.62;2.20;1.10;;;26.10;28.50;;;;;;2269766;61;20772;-68
2022/10/06 08:22:35;0.00;0.00;0.62;0.00;0.00;0.62;3.33;1.00;;;26.20;28.60;;;;;;2269456;61;20360;-66
2022/10/06 08:25:19;0.00;0.00;0.62;0.00;0.00;0.62;1.90;0.97;;;26.20;28.60;;;;;;2269759;61;20751;-67
2022/10/06 08:28:04;0.00;0.00;0.62;0.00;0.00;0.62;3.47;0.97;;;26.20;28.60;;;;;;2266916;61;20413;-67
2022/10/06 08:30:51;0.00;0.00;0.62;0.00;0.00;0.62;2.00;0.97;;;26.30;28.60;;;;;;2269476;61;20448;-67
2022/10/06 08:33:37;0.00;0.00;0.62;0.00;0.00;0.62;1.90;1.10;;;26.30;28.60;;;;;;2269380;61;20383;-66
2022/10/06 08:36:25;0.00;0.00;0.62;0.00;0.00;0.62;2.57;1.10;;;26.40;28.70;;;;;;2269492;61;20785;-67
2022/10/06 08:39:13;0.00;0.00;0.62;0.00;0.00;0.62;1.80;1.00;;;26.40;28.70;;;;;;2269226;61;20583;-67
2022/10/06 08:41:58;0.00;0.00;0.62;0.00;0.00;0.62;1.77;0.80;;;26.50;28.70;;;;;;2269948;61;20375;-66
2022/10/06 08:44:48;0.00;0.00;0.62;0.00;0.00;0.62;3.20;1.10;;;26.50;28.70;;;;;;2269345;61;20348;-66
2022/10/06 08:47:34;0.00;0.00;0.62;0.00;0.00;0.62;2.70;1.00;;;26.60;28.70;;;;;;2269948;61;20383;-67
2022/10/06 08:50:21;0.00;0.00;0.62;0.00;0.00;0.62;1.80;0.90;;;26.60;28.70;;;;;;2269798;61;20411;-67
2022/10/06 08:53:17;0.00;0.00;0.62;0.00;0.00;0.62;2.13;0.83;;;26.70;28.70;;;;;;2268817;61;20364;-67
2022/10/06 08:56:16;0.00;0.00;0.62;0.00;0.00;0.62;1.60;0.90;;;26.70;28.70;;;;;;2270876;61;20376;-67
2022/10/06 08:59:03;0.00;0.00;0.62;0.00;0.00;0.62;2.60;1.07;;;26.80;28.70;;;;;;2267714;61;20823;-70
2022/10/06 09:01:53;0.00;0.00;0.62;0.00;0.00;0.62;2.33;1.10;;;26.80;28.70;;;;;;2264795;61;20357;-69
2022/10/06 09:04:38;0.00;0.00;0.62;0.00;0.00;0.62;1.87;0.70;;;26.80;28.70;;;;;;2265801;61;20733;-67
2022/10/06 09:07:35;0.00;0.00;0.62;0.00;0.00;0.62;1.97;0.90;;;26.90;28.80;;;;;;2265234;61;20725;-67
2022/10/06 09:10:39;0.00;0.00;0.62;0.00;0.00;0.62;2.00;0.90;;;26.90;28.70;;;;;;2265381;61;20376;-69
2022/10/06 09:13:31;0.00;0.00;0.62;0.00;0.00;0.62;1.57;0.90;;;27.00;28.80;;;;;;2266029;61;20380;-66
2022/10/06 09:16:20;0.00;0.00;0.62;0.00;0.00;0.62;2.03;1.00;;;27.10;28.80;;;;;;2265301;61;20735;-68
2022/10/06 09:19:13;0.00;0.00;0.62;0.00;0.00;0.62;2.37;0.93;;;27.10;28.80;;;;;;2265554;61;20365;-66
2022/10/06 09:21:59;0.00;0.00;0.62;0.00;0.00;0.62;2.60;1.20;;;27.10;28.80;;;;;;2265561;61;20361;-67
2022/10/06 09:24:49;0.00;0.00;0.62;0.00;0.00;0.62;2.37;1.10;;;27.20;28.80;;;;;;2265471;61;20704;-67
2022/10/06 09:27:36;0.00;0.00;0.62;0.00;0.00;0.62;3.53;0.97;;;27.20;28.80;;;;;;2265979;61;20411;-67
2022/10/06 09:30:23;0.00;0.00;0.62;0.00;0.00;0.62;2.07;1.20;;;27.20;28.80;;;;;;2264623;61;20377;-68
2022/10/06 09:33:20;0.00;0.00;0.62;0.00;0.00;0.62;1.97;1.13;;;27.30;28.80;;;;;;2265725;61;20392;-70
2022/10/06 09:36:11;0.00;0.00;0.62;0.00;0.00;0.62;2.10;1.00;;;27.30;28.80;;;;;;2265599;61;20381;-68
2022/10/06 09:38:58;0.00;0.00;0.62;0.00;0.00;0.62;2.20;1.30;;;27.40;28.80;;;;;;2265092;61;20365;-68
2022/10/06 09:41:44;0.00;0.00;0.62;0.00;0.00;0.62;2.57;1.00;;;27.40;28.80;;;;;;2265680;61;20341;-71
2022/10/06 09:44:41;0.00;0.00;0.62;0.00;0.00;0.62;1.73;0.87;;;27.50;28.80;;;;;;2265315;61;20360;-68
2022/10/06 09:47:43;0.00;0.00;0.62;0.00;0.00;0.62;2.77;1.07;;;27.50;28.80;;;;;;2265484;61;20353;-67
2022/10/06 09:50:28;0.00;0.00;0.62;0.00;0.00;0.62;1.90;0.90;;;27.50;28.70;;;;;;2265741;61;20377;-69
2022/10/06 09:53:15;0.00;0.00;0.62;0.00;0.00;0.62;2.30;1.00;;;27.60;28.70;;;;;;2265125;61;20388;-69
2022/10/06 09:56:03;0.00;0.00;0.62;0.00;0.00;0.62;1.80;0.90;;;27.60;28.70;;;;;;2265558;61;20353;-68
2022/10/06 09:58:55;0.00;0.00;0.62;0.00;0.00;0.62;2.10;1.00;;;27.70;28.80;;;;;;2265504;61;20361;-69
2022/10/06 10:01:40;0.00;0.00;0.62;0.00;0.00;0.62;1.40;0.80;;;27.70;28.70;;;;;;2265317;61;20391;-67
2022/10/06 10:04:30;0.00;0.00;0.62;0.00;0.00;0.62;1.60;0.80;;;27.80;28.70;;;;;;2265992;61;20361;-69
2022/10/06 10:07:25;0.00;0.00;0.62;0.00;0.00;0.62;2.37;0.80;;;27.80;28.70;;;;;;2267074;61;20403;-67
2022/10/06 10:10:19;0.00;0.00;0.62;0.00;0.00;0.62;2.33;0.87;;;27.80;28.70;;;;;;2272520;58;20431;-70
2022/10/06 10:13:19;0.00;0.00;0.62;0.00;0.00;0.62;1.83;1.00;;;27.90;28.70;;;;;;2365164;53;20612;-66
2022/10/06 10:16:05;0.00;0.00;0.62;0.00;0.00;0.62;1.70;0.83;;;27.90;28.70;;;;;;2268906;61;20438;-68
2022/10/06 10:18:50;0.00;0.00;0.62;0.00;0.00;0.62;2.00;1.00;;;28.00;28.70;;;;;;2711939;45;20357;-67
2022/10/06 10:21:37;0.00;0.00;0.62;0.00;0.00;0.62;1.90;0.80;;;28.00;28.70;;;;;;2265050;61;20384;-70
2022/10/06 10:24:46;0.00;0.00;0.62;0.00;0.00;0.62;1.60;0.80;;;28.10;28.70;;;;;;2267751;61;20372;-68
2022/10/06 10:27:43;0.00;0.00;0.62;0.00;0.00;0.62;2.50;1.27;;;28.10;28.70;;;;;;2311250;58;20674;-71
2022/10/06 10:30:32;0.00;0.00;0.62;0.00;0.00;0.62;1.70;0.80;;;28.10;28.70;;;;;;2265075;61;20384;-67
2022/10/06 10:33:27;0.00;0.00;0.62;0.00;0.00;0.62;1.73;0.90;;;28.20;29.20;;;;;;2265769;61;20380;-68
2022/10/06 10:36:15;0.00;0.00;0.62;0.00;0.00;0.62;1.80;1.10;;;28.20;28.70;;;;;;2265519;61;20476;-67
2022/10/06 10:39:06;0.00;0.00;0.62;0.00;0.00;0.62;2.03;0.90;;;28.30;28.70;;;;;;2276264;61;20399;-65
2022/10/06 10:41:53;0.00;0.00;0.62;0.00;0.00;0.62;1.60;0.90;;;28.30;28.70;;;;;;2268832;61;20373;-67
2022/10/06 10:44:47;0.00;0.00;0.62;0.00;0.00;0.62;1.60;0.80;;;28.40;28.70;;;;;;2307369;58;20402;-70
2022/10/06 10:47:36;0.00;0.00;0.62;0.00;0.00;0.62;1.90;0.97;;;28.40;28.70;;;;;;2380051;53;20359;-67
2022/10/06 10:50:28;0.00;0.00;0.62;0.00;0.00;0.62;1.60;0.80;;;28.50;28.60;;;;;;2476407;45;20413;-66
2022/10/06 10:53:19;0.00;0.00;0.62;0.00;0.00;0.62;2.43;0.93;;;28.50;28.60;;;;;;2265242;61;20365;-68
2022/10/06 10:56:09;0.00;0.00;0.62;0.00;0.00;0.62;1.93;0.97;;;28.50;28.60;;;;;;2318641;53;20653;-68
2022/10/06 10:59:03;0.00;0.00;0.62;0.00;0.00;0.62;1.90;0.90;;;28.60;28.70;;;;;;2264484;61;20595;-66
2022/10/06 11:01:54;0.00;0.00;0.62;0.00;0.00;0.62;1.80;0.90;;;28.60;28.70;;;;;;2428961;53;20376;-69
2022/10/06 11:04:42;0.00;0.00;0.62;0.00;0.00;0.62;2.23;0.90;;;28.60;28.60;;;;;;2265510;61;20372;-67
2022/10/06 11:07:32;0.00;0.00;0.62;0.00;0.00;0.62;2.70;1.03;;;28.70;28.70;;;;;;2266969;61;20572;-66
2022/10/06 11:10:22;0.00;0.00;0.62;0.00;0.00;0.62;1.90;0.90;;;28.70;28.60;;;;;;2267770;61;20414;-68
2022/10/06 11:13:18;0.00;0.00;0.62;0.00;0.00;0.62;3.47;0.90;;;28.80;28.70;;;;;;2695842;45;20407;-71
2022/10/06 11:16:19;0.00;0.00;0.62;0.00;0.00;0.62;1.40;0.70;;;28.90;28.60;;;;;;2268021;61;20492;-69